Terminal Aerodrome Forecast
Issued by NWS

Home | Current Version | Previous Version | Text Only | Print | Product List | Glossary On
Versions: 1 2 3 4 5 6 7 8 9 10 11 12 13 14 15 16 17 18 19 20 21 22 23 24 25 26 27 28 29 30
000
FTUS46 KSEW 201700
TAFSEA
TAF
KSEA 201720Z 2018/2124 36013KT 6SM BR OVC003
     FM201900 35012KT P6SM SKC
     FM210300 02008KT P6SM SKC
     FM210800 08008KT P6SM SKC
     FM211500 24005KT P6SM SKC
     FM212200 24008KT P6SM SKC=

USA.gov is the U.S. government's official web portal to all federal, state and local government web resources and services.